Latest Weather Observations for Omeo

IDV60801

Issued at 9:05 am EDT Wednesday 26 November 2014 (issued every 30 minutes, with the page automatically refreshed every 10 minutes)

About weather observations | Map of weather stations | Latest weather observations for VIC | Other Formats
Station Details ID: 083090 Name: OMEO Lat: -37.10 Lon: 147.60 Height: 689.8 m
Data from the previous 72 hours. | See also: Recent months at Omeo
Date/Time
EDT
Temp
°C
App
Temp
°C
Dew
Point
Rel
Hum
%
Delta-T
°C
Wind Press
QNH
hPa
Press
MSL
hPa
Rain
since 9 am
mm
Dir
 
Spd
km/h
Gust
km/h
Spd
kts
Gust
kts
26/09:00am 11.6 7.3 6.9 73 2.3 N 19 26 10 14 1020.2 1018.5 0.2
26/08:30am 10.2 7.1 7.3 82 1.4 N 13 20 7 11 1020.4 1018.8 0.2
26/08:00am 8.5 5.7 7.1 91 0.7 N 11 17 6 9 1020.2 1018.5 0.2
26/07:30am 6.8 4.6 6.2 96 0.3 NNW 7 11 4 6 1020.3 1018.7 0.2
26/07:00am 5.5 3.0 4.9 96 0.3 WNW 7 9 4 5 1020.1 1018.4 0.2
26/06:30am 5.1 2.7 4.5 96 0.3 N 6 11 3 6 1019.9 1018.2 0.2
26/06:00am 4.7 3.0 4.1 96 0.3 W 2 7 1 4 1019.9 1018.2 0.2
26/05:30am 4.8 3.5 4.2 96 0.3 CALM 0 0 0 0 1019.7 1018.0 0.2
26/05:00am 5.3 4.1 4.7 96 0.3 CALM 0 0 0 0 1019.5 1017.9 0.2
26/04:30am 4.8 3.5 4.1 95 0.3 CALM 0 0 0 0 1019.3 1017.7 0.2
26/04:00am 4.6 3.3 3.9 95 0.3 CALM 0 0 0 0 1019.4 1017.8 0.2
26/03:30am 4.6 2.5 3.7 94 0.4 SSE 4 6 2 3 1019.4 1017.8 0.2
26/03:00am 5.2 3.9 4.3 94 0.4 CALM 0 0 0 0 1019.5 1017.9 0.2
26/02:30am 5.9 4.8 5.0 94 0.4 CALM 0 4 0 2 1020.0 1018.3 0.2
26/02:00am 6.1 4.6 5.1 93 0.5 S 2 9 1 5 1020.3 1018.7 0.2
26/01:30am 6.1 3.6 4.9 92 0.5 S 7 9 4 5 1020.4 1018.8 0.2
26/01:00am 6.4 5.3 5.0 91 0.6 CALM 0 0 0 0 1020.5 1018.9 0.2
26/12:30am 7.1 5.7 5.6 90 0.7 S 2 7 1 4 1020.7 1019.1 0.2
26/12:00am 7.6 6.6 5.6 87 0.9 CALM 0 0 0 0 1021.0 1019.4 0.2
 
Date/Time
EDT
Temp
°C
App
Temp
°C
Dew
Point
Rel
Hum
%
Delta-T
°C
Wind Press
QNH
hPa
Press
MSL
hPa
Rain
since 9 am
mm
Dir
 
Spd
km/h
Gust
km/h
Spd
kts
Gust
kts
25/11:30pm 8.7 7.4 6.0 83 1.3 SSE 2 9 1 5 1021.2 1019.5 0.2
25/11:00pm 9.8 7.6 6.3 79 1.7 SSW 7 9 4 5 1021.2 1019.5 0.2
25/10:30pm 10.7 8.6 6.6 76 2.0 SSW 7 15 4 8 1021.2 1019.5 0.2
25/10:00pm 11.1 9.5 6.5 73 2.2 SW 4 9 2 5 1020.8 1019.2 0.2
25/09:30pm 11.5 10.0 6.6 72 2.4 SSW 4 13 2 7 1020.4 1018.8 0.2
25/09:00pm 11.8 9.2 6.1 68 2.8 SE 9 15 5 8 1019.9 1018.2 0.2
25/08:30pm 13.0 9.7 6.4 64 3.3 SSE 13 20 7 11 1019.4 1017.8 0.2
25/08:00pm 14.3 10.2 6.2 58 4.0 SSE 17 28 9 15 1018.9 1017.2 0.2
25/07:30pm 16.3 12.7 6.7 53 4.9 SE 15 22 8 12 1018.4 1016.7 0.2
25/07:00pm 17.8 14.3 7.0 49 5.6 SE 15 24 8 13 1017.8 1016.2 0.2
25/06:30pm 17.5 14.0 7.3 51 5.3 SE 15 28 8 15 1017.3 1015.6 0.2
25/06:00pm 18.6 16.0 6.1 44 6.4 ESE 9 17 5 9 1017.1 1015.4 0.2
25/05:30pm 19.1 16.0 3.7 36 7.5 N 9 13 5 7 1016.9 1015.2 0.2
25/05:00pm 21.2 18.0 5.1 35 8.2 SSE 11 19 6 10 1016.7 1015.0 0.2
25/04:30pm 22.0 18.6 5.8 35 8.4 SSE 13 20 7 11 1016.4 1014.8 0.2
25/04:00pm 21.1 17.9 5.1 35 8.2 S 11 22 6 12 1016.3 1014.6 0.2
25/03:30pm 20.8 18.2 4.4 34 8.2 NE 7 17 4 9 1016.4 1014.8 0.2
25/03:00pm 20.2 17.4 5.1 37 7.7 SSE 9 20 5 11 1016.4 1014.8 0.2
25/02:30pm 19.7 16.4 2.6 32 8.2 SSW 9 17 5 9 1016.6 1014.9 0.2
25/02:00pm 18.7 15.0 2.1 33 7.8 W 11 22 6 12 1016.8 1015.1 0.2
25/01:30pm 18.4 15.3 3.5 37 7.2 SSW 9 19 5 10 1016.9 1015.2 0.2
25/01:00pm 18.1 13.1 1.6 33 7.7 W 17 24 9 13 1016.9 1015.2 0.2
25/12:30pm 17.9 13.4 2.2 35 7.4 W 15 28 8 15 1017.1 1015.4 0.2
25/12:00pm 17.0 12.7 1.0 34 7.3 W 13 26 7 14 1017.2 1015.5 0.2
25/11:30am 17.0 12.7 1.0 34 7.3 W 13 26 7 14 1017.0 1015.3 0.2
25/11:00am 16.1 10.7 1.4 37 6.7 WNW 19 26 10 14 1017.0 1015.3 0.2
25/10:30am 14.9 9.2 -0.8 34 6.8 NW 19 26 10 14 1016.9 1015.2 0.0
25/10:00am 14.5 10.5 0.7 39 6.1 WSW 11 20 6 11 1016.6 1014.9 0.0
25/09:30am 13.7 9.8 1.4 43 5.5 WNW 11 19 6 10 1016.4 1014.8 0.0
25/09:00am 12.9 9.6 2.7 50 4.7 WNW 9 22 5 12 1016.2 1014.5 15.6
25/08:30am 11.9 8.3 2.9 54 4.1 NNW 11 22 6 12 1015.8 1014.1 15.6
25/08:00am 10.7 6.6 2.0 55 3.8 NW 13 20 7 11 1015.6 1013.9 15.6
25/07:30am 9.4 5.5 1.1 56 3.6 NNW 11 17 6 9 1015.4 1013.7 15.6
25/07:00am 8.8 5.1 2.2 63 2.9 WNW 11 17 6 9 1014.8 1013.1 15.6
25/06:30am 6.7 5.3 3.7 81 1.3 CALM 0 2 0 1 1014.7 1013.0 15.6
25/06:00am 7.9 4.8 3.8 75 1.8 W 9 19 5 10 1014.2 1012.5 15.6
25/05:30am 6.4 4.2 5.4 93 0.5 S 6 7 3 4 1013.5 1011.7 15.6
25/05:00am 7.4 5.3 6.7 95 0.3 S 7 11 4 6 1012.8 1011.1 15.6
25/04:30am 7.9 5.9 7.1 95 0.4 S 7 13 4 7 1012.3 1010.5 15.6
25/04:00am 8.6 6.8 7.8 95 0.4 SSE 7 11 4 6 1011.9 1010.1 15.6
25/03:30am 9.0 6.1 8.2 95 0.4 SSE 13 20 7 11 1011.7 1010.0 15.6
25/03:00am 9.1 6.2 8.3 95 0.4 SE 13 20 7 11 1011.4 1009.7 15.6
25/02:30am 9.3 6.5 8.5 95 0.4 SE 13 20 7 11 1011.3 1009.5 15.6
25/02:00am 9.6 6.5 8.8 95 0.4 SE 15 24 8 13 1011.2 1009.4 15.6
25/01:30am 10.8 8.0 10.0 95 0.4 SE 15 24 8 13 1010.8 1009.0 15.6
25/01:00am 11.3 9.0 10.5 95 0.4 SE 13 19 7 10 1011.1 1009.3 15.6
25/12:30am 11.5 9.7 10.7 95 0.4 SSE 11 17 6 9 1011.2 1009.4 15.6
25/12:00am 11.6 9.8 10.8 95 0.4 SSE 11 19 6 10 1011.4 1009.7 15.6
 
Date/Time
EDT
Temp
°C
App
Temp
°C
Dew
Point
Rel
Hum
%
Delta-T
°C
Wind Press
QNH
hPa
Press
MSL
hPa
Rain
since 9 am
mm
Dir
 
Spd
km/h
Gust
km/h
Spd
kts
Gust
kts
24/11:30pm 11.9 9.0 11.1 95 0.4 SE 17 24 9 13 1011.1 1009.3 15.0
24/11:00pm 13.0 10.0 12.1 94 0.5 SE 19 26 10 14 1010.7 1008.9 14.8
24/10:30pm 14.9 15.1 14.3 96 0.4 SSW 6 7 3 4 1010.5 1008.7 14.8
24/10:00pm 14.8 15.8 14.3 97 0.3 NNW 2 6 1 3 1010.1 1008.4 14.8
24/09:30pm 14.7 14.3 14.2 97 0.3 NNW 9 13 5 7 1010.6 1008.8 14.8
24/09:00pm 14.6 12.7 14.1 97 0.3 NNW 17 24 9 13 1009.8 1008.0 13.0
24/08:30pm 14.5 12.5 13.9 96 0.3 N 17 26 9 14 1009.0 1007.2 10.4
24/08:00pm 14.7 12.1 13.7 94 0.6 N 20 28 11 15 1008.9 1007.1 7.2
24/07:30pm 15.2 12.6 13.7 91 0.9 NNW 20 32 11 17 1008.3 1006.5 5.8
24/07:00pm 15.2 12.9 13.1 87 1.2 N 17 28 9 15 1007.4 1005.5 5.4
24/06:30pm 16.1 14.5 12.8 81 1.9 N 13 20 7 11 1008.9 1007.1 4.0
24/06:00pm 17.3 14.4 12.8 75 2.6 NNW 20 30 11 16 1009.1 1007.3 2.4
24/05:30pm 19.3 16.2 14.6 74 2.8 N 24 35 13 19 1008.6 1006.8 0.0
24/05:00pm 20.6 17.4 14.3 67 3.8 N 24 37 13 20 1008.0 1006.2 0.0
24/04:30pm 20.9 18.3 13.8 64 4.2 N 20 28 11 15 1008.4 1006.6 0.0
24/04:00pm 21.1 18.6 14.0 64 4.3 N 20 28 11 15 1009.1 1007.3 0.0
24/03:30pm 20.6 17.1 13.3 63 4.3 N 24 35 13 19 1009.9 1008.1 0.0
24/03:00pm 20.7 17.7 13.6 64 4.2 NNW 22 32 12 17 1010.2 1008.5 0.0
24/02:30pm 20.5 18.2 14.2 67 3.8 N 19 28 10 15 1010.6 1008.8 0.0
24/02:00pm 20.5 19.1 14.4 68 3.7 N 15 24 8 13 1010.5 1008.7 0.0
24/01:30pm 21.0 19.4 13.9 64 4.2 N 15 24 8 13 1010.6 1008.8 0.0
24/01:00pm 21.0 18.2 14.2 65 4.1 NNW 22 33 12 18 1010.2 1008.5 0.0
24/12:30pm 21.1 17.9 14.3 65 4.1 NW 24 35 13 19 1011.0 1009.2 0.0
24/12:00pm 21.8 16.7 13.7 60 4.8 NNW 33 46 18 25 1011.1 1009.3 0.0
24/11:30am 22.5 16.4 13.0 55 5.6 N 37 59 20 32 1011.0 1009.2 0.0
24/11:00am 22.8 17.8 13.3 55 5.7 NNW 32 43 17 23 1012.0 1010.2 0.0
24/10:30am 23.0 17.0 13.2 54 5.8 NNW 37 54 20 29 1012.3 1010.5 0.0
24/10:10am 23.3 18.0 13.2 53 6.0 NNW 33 56 18 30 1012.4 1010.6 0.0
24/10:00am 22.9 17.5 12.8 53 6.0 N 33 50 18 27 1012.4 1010.6 0.0
24/09:30am 24.8 19.5 13.0 47 7.1 N 33 54 18 29 1012.7 1011.0 0.0
24/09:15am 24.3 19.9 12.9 49 6.8 N 28 46 15 25 1013.2 1011.5 0.0
24/09:00am 22.2 17.9 12.2 53 5.8 N 26 39 14 21 1013.8 1012.0 0.2
24/08:30am 20.0 16.4 11.7 59 4.8 N 22 32 12 17 1013.6 1011.8 0.2
24/08:00am 17.9 15.2 11.7 67 3.5 N 17 20 9 11 1013.6 1011.8 0.2
24/07:30am 17.0 14.6 11.5 70 3.1 N 15 20 8 11 1013.5 1011.7 0.2
24/07:00am 16.5 14.6 11.9 74 2.6 N 13 17 7 9 1013.3 1011.6 0.2
24/06:30am 15.8 13.8 11.4 75 2.5 N 13 19 7 10 1013.2 1011.5 0.2
24/06:00am 15.4 12.6 11.4 77 2.2 N 17 22 9 12 1013.2 1011.5 0.2
24/05:30am 13.4 11.6 10.9 85 1.4 NNW 11 17 6 9 1013.0 1011.3 0.2
24/05:00am 13.2 12.0 10.4 83 1.5 NNW 7 7 4 4 1012.9 1011.2 0.2
24/04:30am 12.8 11.9 10.5 86 1.2 NW 6 7 3 4 1013.2 1011.5 0.2
24/04:00am 13.1 12.0 10.8 86 1.2 NW 7 11 4 6 1013.7 1011.9 0.2
24/03:30am 13.1 12.2 10.6 85 1.4 NNW 6 7 3 4 1014.2 1012.5 0.2
24/03:00am 12.9 12.7 10.3 84 1.4 S 2 7 1 4 1014.5 1012.8 0.2
24/02:30am 13.5 13.8 10.9 84 1.4 CALM 0 0 0 0 1014.4 1012.7 0.2
24/02:00am 13.3 13.4 10.3 82 1.6 CALM 0 0 0 0 1015.3 1013.6 0.2
24/01:30am 13.6 13.3 10.2 80 1.8 WSW 2 7 1 4 1015.5 1013.8 0.2
24/01:00am 13.4 13.3 9.6 78 2.0 CALM 0 0 0 0 1016.1 1014.4 0.2
24/12:30am 13.1 12.7 9.7 80 1.8 ENE 2 6 1 3 1016.0 1014.3 0.2
24/12:00am 12.8 12.7 9.4 80 1.8 CALM 0 0 0 0 1015.4 1013.7 0.2
 
Date/Time
EDT
Temp
°C
App
Temp
°C
Dew
Point
Rel
Hum
%
Delta-T
°C
Wind Press
QNH
hPa
Press
MSL
hPa
Rain
since 9 am
mm
Dir
 
Spd
km/h
Gust
km/h
Spd
kts
Gust
kts
23/11:30pm 13.1 11.9 9.5 79 1.9 ESE 6 9 3 5 1016.1 1014.4 0.2
23/11:00pm 13.2 11.8 9.5 78 2.0 S 7 13 4 7 1016.1 1014.4 0.2
23/10:30pm 13.5 11.4 9.6 77 2.1 SSE 11 15 6 8 1017.0 1015.3 0.2
23/10:00pm 13.7 11.6 9.9 78 2.0 SSE 11 15 6 8 1016.9 1015.2 0.2
23/09:30pm 14.0 11.1 9.8 76 2.2 SSE 15 22 8 12 1016.9 1015.2 0.2
23/09:00pm 14.0 10.3 9.6 75 2.3 SSE 19 32 10 17 1016.3 1014.6 0.2
23/08:30pm 14.5 10.7 9.9 74 2.5 SE 20 35 11 19 1015.6 1013.9 0.2
23/08:00pm 15.7 11.7 10.5 71 2.8 SE 22 33 12 18 1015.2 1013.5 0.2
23/07:30pm 17.8 14.6 11.8 68 3.4 SE 20 32 11 17 1014.1 1012.4 0.2
23/07:00pm 20.3 16.6 12.8 62 4.4 SE 24 35 13 19 1013.0 1011.3 0.2
23/06:30pm 25.0 22.2 13.2 48 7.1 SE 20 30 11 16 1012.2 1010.4 0.2
23/06:00pm 28.7 25.4 9.4 30 11.1 NW 17 22 9 12 1012.0 1010.2 0.2
23/05:30pm 29.3 24.5 8.9 28 11.6 NW 24 39 13 21 1011.9 1010.1 0.2
23/05:00pm 29.6 27.0 9.2 28 11.7 W 13 20 7 11 1011.6 1009.9 0.2
23/04:30pm 30.1 25.1 7.9 25 12.5 W 24 39 13 21 1011.9 1010.1 0.2
23/04:00pm 31.4 27.0 9.0 25 12.9 NW 22 35 12 19 1011.5 1009.8 0.2
23/03:35pm 31.0 24.3 7.5 23 13.2 NW 32 50 17 27 1011.1 1009.3 0.2
23/03:30pm 31.3 25.4 7.7 23 13.3 NW 28 43 15 23 1011.2 1009.4 0.2
23/03:00pm 31.8 28.6 9.9 26 12.8 WNW 17 32 9 17 1011.3 1009.5 0.2
23/02:30pm 31.6 27.6 11.9 30 11.9 NNW 24 46 13 25 1011.4 1009.7 0.2
23/02:00pm 30.7 25.2 10.6 29 11.9 NNW 30 48 16 26 1011.4 1009.7 0.2
23/01:32pm 30.7 24.8 10.6 29 11.9 NNW 32 50 17 27 1011.5 1009.8 0.2
23/01:30pm 30.6 24.6 10.0 28 12.0 NNW 32 44 17 24 1011.6 1009.9 0.2
23/01:06pm 30.5 25.5 11.0 30 11.6 NNW 28 46 15 25 1011.7 1010.0 0.2
23/01:00pm 30.6 26.4 11.1 30 11.6 NNW 24 44 13 24 1011.9 1010.1 0.2
23/12:30pm 30.3 27.1 11.8 32 11.1 WNW 20 28 11 15 1012.1 1010.3 0.2
23/12:00pm 28.2 25.2 12.1 37 9.6 NNE 19 28 10 15 1012.5 1010.7 0.2
23/11:30am 27.5 25.2 13.1 41 8.7 N 17 28 9 15 1012.8 1011.1 0.2
23/11:00am 26.7 25.2 14.1 46 7.7 N 15 24 8 13 1013.1 1011.4 0.2
23/10:30am 24.7 22.9 13.3 49 6.8 N 15 20 8 11 1013.5 1011.7 0.2
23/10:00am 23.6 22.8 14.0 55 5.8 N 11 17 6 9 1013.7 1011.9 0.0
23/09:30am 22.1 20.7 13.5 58 5.1 N 13 19 7 10 1013.9 1012.2 0.0

Other Formats:

Comma delimited format used in spreadsheet applications
http://www.bom.gov.au/fwo/IDV60801/IDV60801.94908.axf

JavaScript Object Notation format (JSON) in row-major order
http://www.bom.gov.au/fwo/IDV60801/IDV60801.94908.json